Overview Statistics Trail Chart Weather Telemetry Raw packets
 

This is the latest recevied weather packets stored in our database for station/object KF0ZH. If no packets are shown the sender has not sent any weather packets the latest 10 day(s).

<< 84 85 86 87 88 89 90 >>
Time Temp. Humidity Pressure Rain* Wind** Luminosity Snow
1787839744 20° C 90% 1016.9 hPa 0 mm 0 m/s - -
1787838846 19.44° C 95% 1017 hPa 0 mm 0 m/s - -
1787838544 18.89° C 96% 1017 hPa 0 mm 0 m/s - -
1787837944 18.89° C 97% 1016.9 hPa 0 mm 0 m/s - -
1787837644 18.33° C 99% 1016.9 hPa 0 mm 0 m/s - -
1787836745 17.78° C 99% 1016.9 hPa 0 mm 0 m/s - -
1787836444 17.78° C 99% 1016.9 hPa 0 mm 0 m/s - -
1787836144 17.78° C 99% 1016.8 hPa 0 mm 0 m/s - -
1787835845 17.22° C 99% 1016.8 hPa 0 mm 0 m/s - -
1787835545 17.22° C 99% 1016.7 hPa 0 mm 0 m/s - -
1787835244 16.67° C 99% 1016.6 hPa 0 mm 0 m/s - -
1787834945 16.67° C 99% 1016.6 hPa 0 mm 0 m/s - -
1787834649 16.11° C 99% 1016.6 hPa 0 mm 0 m/s - -
1787834344 16.11° C 99% 1016.5 hPa 0 mm 0 m/s - -
1787834049 15.56° C 99% 1016.5 hPa 0 mm 0 m/s - -
1787833475 15.56° C 99% 1016.4 hPa 0 mm 0 m/s - -
1787833444 15.56° C 99% 1016.4 hPa 0 mm 0 m/s - -
1787800324 21.11° C 81% 1014.1 hPa 0 mm 0 m/s - -
1787800023 21.11° C 80% 1014 hPa 0 mm 0 m/s - -
1787799723 21.11° C 78% 1013.9 hPa 0 mm 0 m/s - -
1787799424 21.67° C 78% 1013.8 hPa 0 mm 0 m/s - -
1787798823 21.67° C 77% 1013.9 hPa 0 mm 0 m/s - -
1787798523 21.67° C 76% 1013.8 hPa 0 mm 0 m/s - -
1787798227 21.67° C 76% 1013.8 hPa 0 mm 0 m/s - -
1787797923 22.22° C 75% 1013.8 hPa 0 mm 0 m/s - -

* Rain latest hour (hover to see other rain measurements)
** Current wind speed in m/s (hover to see current wind gust speed)